createdAt,value
2023-03-12T00:01:24.922Z,70.26
2023-03-12T00:03:54.241Z,70.46
2023-03-12T00:06:22.419Z,70.80
2023-03-12T00:08:56.382Z,70.69
2023-03-12T00:11:25.425Z,70.56
2023-03-12T00:13:55.135Z,69.84
2023-03-12T00:16:23.655Z,69.93
2023-03-12T00:18:52.774Z,70.03
2023-03-12T00:21:22.389Z,69.93
2023-03-12T00:23:54.290Z,69.48
2023-03-12T00:26:23.099Z,69.25
2023-03-12T00:28:52.478Z,69.20
2023-03-12T00:31:28.258Z,69.13
2023-03-12T00:34:00.616Z,69.13
2023-03-12T00:36:31.244Z,69.30
2023-03-12T00:39:02.895Z,69.80
2023-03-12T00:41:33.005Z,70.03
2023-03-12T00:44:01.170Z,69.80
2023-03-12T00:46:29.808Z,69.35
2023-03-12T00:48:57.997Z,69.20
2023-03-12T00:51:26.223Z,69.12
2023-03-12T00:53:56.129Z,69.50
2023-03-12T00:56:25.532Z,69.73
2023-03-12T00:58:53.715Z,69.93
2023-03-12T01:01:21.981Z,70.26
2023-03-12T01:03:54.797Z,70.50
2023-03-12T01:06:24.480Z,70.54
2023-03-12T01:08:53.063Z,70.42
2023-03-12T01:11:21.750Z,70.44
2023-03-12T01:13:49.931Z,70.69
2023-03-12T01:16:18.383Z,70.96
2023-03-12T01:18:46.745Z,70.77
2023-03-12T01:21:14.959Z,70.36
2023-03-12T01:23:43.040Z,69.91
2023-03-12T01:26:11.454Z,69.86
2023-03-12T01:28:39.689Z,69.74
2023-03-12T01:31:09.257Z,69.40
2023-03-12T01:33:38.055Z,69.41
2023-03-12T01:36:13.155Z,69.42
2023-03-12T01:38:41.398Z,69.10
2023-03-12T01:41:09.674Z,69.47
2023-03-12T01:43:39.093Z,69.76
2023-03-12T01:46:27.113Z,70.30
2023-03-12T01:49:09.033Z,70.59
2023-03-12T01:51:59.048Z,70.17
2023-03-12T01:54:32.600Z,69.78
2023-03-12T01:57:02.721Z,69.50
2023-03-12T01:59:39.390Z,69.04
2023-03-12T02:02:07.666Z,68.52
2023-03-12T02:04:36.457Z,68.39
2023-03-12T02:07:09.764Z,68.43
2023-03-12T02:09:46.455Z,68.79
2023-03-12T02:12:16.552Z,68.78
2023-03-12T02:14:44.584Z,68.54
2023-03-12T02:17:12.895Z,68.93
2023-03-12T02:20:08.833Z,69.06
2023-03-12T02:22:37.772Z,68.69
2023-03-12T02:25:41.011Z,68.14
2023-03-12T02:28:12.359Z,68.36
2023-03-12T02:30:43.026Z,68.54
2023-03-12T02:33:23.852Z,69.07
2023-03-12T02:35:52.579Z,68.65
2023-03-12T02:38:30.244Z,69.12
2023-03-12T02:40:59.549Z,69.93
2023-03-12T02:43:28.442Z,70.04
2023-03-12T02:45:57.253Z,69.89
2023-03-12T02:48:25.813Z,69.55
2023-03-12T02:50:54.488Z,69.86
2023-03-12T02:53:23.387Z,70.03
2023-03-12T02:55:52.289Z,70.16
2023-03-12T02:58:20.876Z,70.34
2023-03-12T03:00:49.348Z,70.28
2023-03-12T03:03:18.045Z,70.46
2023-03-12T03:05:46.412Z,70.55
2023-03-12T03:08:18.184Z,70.80
2023-03-12T03:10:51.874Z,71.10
2023-03-12T03:13:20.771Z,70.98
2023-03-12T03:15:50.325Z,71.29
2023-03-12T03:18:21.623Z,71.29
2023-03-12T03:21:06.793Z,71.18
2023-03-12T03:23:38.357Z,70.96
2023-03-12T03:26:06.830Z,70.86
2023-03-12T03:28:35.111Z,70.91
2023-03-12T03:31:03.703Z,70.84
2023-03-12T03:33:38.310Z,70.47
2023-03-12T03:36:07.819Z,70.13
2023-03-12T03:38:38.704Z,69.87
2023-03-12T03:41:11.747Z,70.22
2023-03-12T03:43:43.001Z,70.19
2023-03-12T03:46:12.445Z,70.01
2023-03-12T03:48:43.483Z,69.98
2023-03-12T03:51:12.026Z,70.31
2023-03-12T03:53:43.595Z,70.60
2023-03-12T03:56:14.592Z,70.92
2023-03-12T03:58:52.427Z,71.13
2023-03-12T04:39:00.119Z,72.14
2023-03-12T04:41:37.188Z,72.18
2023-03-12T04:44:12.949Z,72.13
2023-03-12T04:46:42.420Z,71.76
2023-03-12T04:49:12.789Z,71.54
2023-03-12T04:51:41.677Z,70.64
2023-03-12T04:54:10.261Z,69.72
2023-03-12T04:56:39.138Z,71.19
2023-03-12T04:59:10.689Z,72.90
2023-03-12T05:01:39.797Z,78.43
2023-03-12T05:04:13.384Z,78.37
2023-03-12T05:06:41.766Z,77.95
2023-03-12T05:09:11.175Z,77.98
2023-03-12T05:11:40.982Z,76.79
2023-03-12T05:14:12.233Z,77.96
2023-03-12T05:16:41.222Z,77.79
2023-03-12T05:19:12.365Z,78.51
2023-03-12T05:21:42.494Z,78.41
2023-03-12T05:24:10.711Z,78.64
2023-03-12T05:26:41.700Z,77.90
2023-03-12T05:29:12.845Z,77.51
2023-03-12T05:31:47.006Z,77.82
2023-03-12T05:34:16.007Z,76.90
2023-03-12T05:36:45.560Z,76.35
2023-03-12T05:39:16.190Z,76.54
2023-03-12T05:41:44.781Z,76.68
2023-03-12T05:44:17.866Z,74.60
2023-03-12T05:46:49.928Z,74.59
2023-03-12T05:49:18.820Z,75.25
2023-03-12T05:51:48.543Z,75.74
2023-03-12T05:54:17.221Z,77.02
2023-03-12T05:56:46.032Z,76.88
2023-03-12T05:59:14.684Z,76.24
2023-03-12T06:01:43.266Z,77.24
2023-03-12T06:04:11.875Z,77.25
2023-03-12T06:06:41.056Z,77.39
2023-03-12T06:09:10.040Z,77.74
2023-03-12T06:11:39.402Z,76.49
2023-03-12T06:14:07.928Z,76.63
2023-03-12T06:16:37.674Z,75.70
2023-03-12T06:19:06.990Z,75.11
2023-03-12T06:21:42.480Z,75.66
2023-03-12T06:24:11.784Z,76.20
2023-03-12T06:26:49.973Z,76.34
2023-03-12T06:29:18.583Z,78.69
2023-03-12T06:31:48.529Z,80.40
2023-03-12T06:34:23.215Z,80.40
2023-03-12T15:18:37.987Z,70.40
2023-03-12T15:21:07.081Z,67.70
2023-03-12T15:23:44.072Z,66.97
2023-03-12T15:26:24.829Z,63.10
2023-03-12T15:29:26.144Z,61.61
2023-03-12T15:31:55.237Z,60.20
2023-03-12T15:34:31.646Z,59.41
2023-03-12T15:37:00.536Z,59.36
2023-03-12T15:39:33.462Z,59.36
2023-03-12T15:42:10.261Z,59.18
2023-03-12T15:44:48.025Z,59.26
2023-03-12T15:47:19.822Z,59.40
2023-03-12T15:49:56.050Z,59.44
2023-03-12T15:52:31.455Z,59.64
2023-03-12T15:55:13.974Z,59.47
2023-03-12T15:57:51.449Z,59.41
2023-03-12T16:00:21.594Z,58.46
2023-03-12T16:02:51.603Z,57.27
2023-03-12T16:05:41.897Z,56.27
2023-03-12T16:08:15.914Z,55.74
2023-03-12T16:10:43.977Z,55.35
2023-03-12T16:13:13.514Z,54.77
2023-03-12T16:15:43.313Z,54.38
2023-03-12T16:18:18.432Z,53.97
2023-03-12T16:20:45.486Z,53.86
2023-03-12T16:23:17.139Z,53.60
2023-03-12T16:25:45.924Z,53.26
2023-03-12T16:28:14.111Z,53.12
2023-03-12T16:30:41.216Z,53.10
2023-03-12T16:33:09.374Z,53.12
2023-03-12T16:35:37.692Z,53.42
2023-03-12T16:38:06.590Z,53.67
2023-03-12T16:40:38.450Z,53.98
2023-03-12T16:43:07.063Z,54.06
2023-03-12T16:45:35.194Z,54.38
2023-03-12T16:48:04.914Z,54.59
2023-03-12T16:50:32.698Z,54.94
2023-03-12T16:52:59.858Z,55.16
2023-03-12T16:55:28.437Z,55.66
2023-03-12T16:58:00.369Z,59.70
2023-03-12T17:00:29.890Z,62.43
2023-03-12T17:02:59.696Z,59.36
2023-03-12T17:05:27.603Z,57.68
2023-03-12T17:07:55.352Z,56.47
2023-03-12T17:10:25.651Z,56.13
2023-03-12T17:12:52.499Z,56.02
2023-03-12T17:15:21.212Z,56.19
2023-03-12T22:57:42.227Z,54.63
2023-03-12T23:00:12.804Z,54.19
2023-03-12T23:02:41.046Z,54.38
2023-03-12T23:05:09.829Z,54.64
2023-03-12T23:07:38.214Z,54.72
2023-03-12T23:10:08.321Z,54.83
2023-03-12T23:12:36.802Z,55.01
2023-03-12T23:15:06.721Z,55.30
2023-03-12T23:17:36.311Z,55.58
2023-03-12T23:20:06.142Z,55.58
2023-03-12T23:22:34.836Z,55.90
2023-03-12T23:25:05.918Z,56.05
2023-03-12T23:27:34.352Z,56.18
2023-03-12T23:30:02.478Z,56.28
2023-03-12T23:32:31.962Z,56.39
2023-03-12T23:35:00.613Z,56.60
2023-03-12T23:37:31.759Z,56.70
2023-03-12T23:40:00.170Z,56.82
2023-03-12T23:42:29.380Z,56.88
2023-03-12T23:44:57.512Z,56.93
2023-03-12T23:47:26.608Z,57.01
2023-03-12T23:49:55.609Z,56.77
2023-03-12T23:52:26.865Z,56.76
2023-03-12T23:54:55.384Z,56.64
2023-03-12T23:57:23.809Z,56.72
2023-03-12T23:59:54.704Z,56.78
